Time;durP1;ratioP1;P1;durP2;ratioP2;P2;SDS_P1;SDS_P2;PMS_P1;PMS_P2;Temp;Humidity;BMP_temperature;BMP_pressure;BME280_temperature;BME280_humidity;BME280_pressure;Samples;Min_cycle;Max_cycle;Signal;HPM_P1;HPM_P2
2022/01/24 00:01:46;;;;;;;0.05;0.05;;;5.10;99.90;;;;;;5109299;28;20058;-82
2022/01/24 00:04:13;;;;;;;0.10;0.10;;;5.20;99.90;;;;;;5126449;28;20051;-81
2022/01/24 00:06:40;;;;;;;0.10;0.10;;;5.20;99.90;;;;;;5109414;28;20417;-81
2022/01/24 00:09:10;;;;;;;0.10;0.10;;;5.10;99.90;;;;;;5110035;28;20032;-82
2022/01/24 00:12:26;;;;;;;0.10;0.10;;;5.20;99.90;;;;;;5142901;28;20385;-81
2022/01/24 00:17:33;;;;;;;0.10;0.10;;;5.20;99.90;;;;;;5102423;28;20044;-82
2022/01/24 00:28:19;;;;;;;0.10;0.10;;;5.10;99.90;;;;;;5112327;28;20058;-82
2022/01/24 00:30:46;;;;;;;0.10;0.10;;;5.10;99.90;;;;;;5143190;28;20036;-81
2022/01/24 00:33:13;;;;;;;0.10;0.10;;;5.20;99.90;;;;;;5143234;28;20040;-81
2022/01/24 00:35:40;;;;;;;0.10;0.10;;;5.20;99.90;;;;;;5109268;28;20048;-81
2022/01/24 00:38:10;;;;;;;0.10;0.10;;;5.10;99.90;;;;;;5092820;28;20099;-82
2022/01/24 00:40:40;;;;;;;0.10;0.10;;;5.10;99.90;;;;;;5109124;28;20060;-82
2022/01/24 00:43:30;;;;;;;0.10;0.10;;;5.10;99.90;;;;;;5109811;28;20520;-81
2022/01/24 00:46:04;;;;;;;0.10;0.10;;;5.10;99.90;;;;;;5147505;28;20063;-82
2022/01/24 00:54:42;;;;;;;0.10;0.10;;;5.10;99.90;;;;;;5116012;28;20082;-81
2022/01/24 00:56:49;;;;;;;0.10;0.10;;;5.10;99.90;;;;;;5115390;28;20412;-81
2022/01/24 00:59:16;;;;;;;0.00;0.00;;;5.20;99.90;;;;;;5096688;28;20036;-81
2022/01/24 01:01:43;;;;;;;0.10;0.10;;;5.20;99.90;;;;;;5095846;28;20134;-81
2022/01/24 01:04:09;;;;;;;0.10;0.10;;;5.00;99.90;;;;;;5112984;28;20040;-81
2022/01/24 01:06:39;;;;;;;0.13;0.13;;;5.00;99.90;;;;;;5129180;28;20127;-81
2022/01/24 01:20:16;;;;;;;0.10;0.10;;;5.00;99.90;;;;;;5114904;28;20047;-82
2022/01/24 01:22:42;;;;;;;0.10;0.10;;;5.10;99.90;;;;;;5112748;28;20695;-82
2022/01/24 01:25:09;;;;;;;0.10;0.10;;;4.90;99.90;;;;;;5129974;28;20038;-82
2022/01/24 01:27:41;;;;;;;0.10;0.10;;;4.90;99.90;;;;;;5112514;28;20555;-82
2022/01/24 01:30:16;;;;;;;0.10;0.10;;;4.90;99.90;;;;;;5097220;28;20036;-82
2022/01/24 01:56:45;;;;;;;0.10;0.10;;;4.90;99.90;;;;;;5112249;28;20139;-82
2022/01/24 01:59:12;;;;;;;0.10;0.10;;;4.80;99.90;;;;;;5128806;28;20368;-82
2022/01/24 02:01:39;;;;;;;0.10;0.10;;;4.90;99.90;;;;;;5111496;28;20634;-82
2022/01/24 02:04:05;;;;;;;0.10;0.10;;;4.80;99.90;;;;;;5128903;28;20074;-82
2022/01/24 02:06:33;;;;;;;0.10;0.10;;;4.80;99.90;;;;;;5095503;28;20542;-82
2022/01/24 02:09:04;;;;;;;0.10;0.10;;;5.00;99.90;;;;;;5128316;28;20051;-82
2022/01/24 02:11:33;;;;;;;0.10;0.10;;;4.80;99.90;;;;;;5128957;28;20093;-82
2022/01/24 02:14:03;;;;;;;0.10;0.10;;;5.20;99.90;;;;;;5095046;28;20032;-82
2022/01/24 02:21:44;;;;;;;0.10;0.10;;;4.80;99.90;;;;;;5112653;28;20044;-81
2022/01/24 02:24:13;;;;;;;0.10;0.10;;;4.80;99.90;;;;;;5112876;28;20123;-82
2022/01/24 02:26:40;;;;;;;0.10;0.10;;;4.80;99.90;;;;;;5127943;28;20805;-82
2022/01/24 02:29:27;;;;;;;0.10;0.10;;;5.10;99.90;;;;;;5128363;28;20039;-81
2022/01/24 02:31:55;;;;;;;0.10;0.10;;;4.80;99.90;;;;;;5145040;28;20481;-82
2022/01/24 02:34:36;;;;;;;0.10;0.10;;;4.80;99.90;;;;;;5111273;28;20040;-81
2022/01/24 02:37:07;;;;;;;0.10;0.10;;;4.80;99.90;;;;;;5144820;28;20039;-81
2022/01/24 02:48:38;;;;;;;0.10;0.10;;;4.70;99.90;;;;;;5127427;28;20589;-81
2022/01/24 02:51:12;;;;;;;0.10;0.10;;;4.70;99.90;;;;;;5122166;28;20044;-81
2022/01/24 02:53:39;;;;;;;0.10;0.10;;;5.00;99.90;;;;;;5114501;28;20048;-81
2022/01/24 02:56:06;;;;;;;0.10;0.10;;;4.70;99.90;;;;;;5110992;28;20051;-82
2022/01/24 02:58:34;;;;;;;0.10;0.10;;;4.70;99.90;;;;;;5127427;28;20039;-82
2022/01/24 03:01:06;;;;;;;0.10;0.10;;;4.70;99.90;;;;;;5127376;28;20511;-82
2022/01/24 03:03:37;;;;;;;0.10;0.10;;;4.80;99.90;;;;;;5127933;28;20458;-82
2022/01/24 03:06:05;;;;;;;0.10;0.10;;;4.70;99.90;;;;;;5110468;28;20043;-81
2022/01/24 03:08:32;;;;;;;0.10;0.10;;;4.70;99.90;;;;;;5126622;28;20040;-81
2022/01/24 03:11:00;;;;;;;0.10;0.10;;;4.70;99.90;;;;;;5127119;28;20063;-81
2022/01/24 03:15:55;;;;;;;0.10;0.10;;;5.40;99.90;;;;;;5126716;28;20489;-82
2022/01/24 03:18:23;;;;;;;0.10;0.10;;;4.70;99.90;;;;;;5143940;28;20096;-81
2022/01/24 03:20:50;;;;;;;0.00;0.00;;;4.70;99.90;;;;;;5126782;28;20501;-81
2022/01/24 03:23:20;;;;;;;0.10;0.10;;;4.70;99.90;;;;;;5110446;28;20040;-81
2022/01/24 03:25:47;;;;;;;0.10;0.10;;;5.20;99.90;;;;;;5143652;28;20419;-82
2022/01/24 03:28:15;;;;;;;0.10;0.10;;;5.40;99.90;;;;;;5110761;28;20032;-82
2022/01/24 03:30:41;;;;;;;0.20;0.20;;;4.70;99.90;;;;;;5110306;28;20032;-81
2022/01/24 03:33:09;;;;;;;0.10;0.10;;;4.70;99.90;;;;;;5076892;28;20094;-81
2022/01/24 03:35:37;;;;;;;0.10;0.10;;;5.30;99.90;;;;;;5144249;28;20036;-81
2022/01/24 03:38:04;;;;;;;0.10;0.10;;;4.70;99.90;;;;;;5093058;28;20087;-81
2022/01/24 03:40:30;;;;;;;0.10;0.10;;;4.70;99.90;;;;;;5126951;28;20091;-82
2022/01/24 03:42:57;;;;;;;0.03;0.03;;;5.10;99.90;;;;;;5126256;28;20122;-81
2022/01/24 03:45:37;;;;;;;0.10;0.10;;;4.70;99.90;;;;;;5143829;28;20047;-82
2022/01/24 03:48:11;;;;;;;0.10;0.10;;;4.70;99.90;;;;;;5111401;28;20043;-81
2022/01/24 03:50:38;;;;;;;0.10;0.10;;;4.70;99.90;;;;;;5143769;28;20083;-81
2022/01/24 03:53:05;;;;;;;0.10;0.10;;;5.40;99.90;;;;;;5126112;28;20449;-81
2022/01/24 03:55:33;;;;;;;0.10;0.10;;;4.90;99.90;;;;;;5109700;28;20174;-81
2022/01/24 03:58:00;;;;;;;0.10;0.10;;;4.70;99.90;;;;;;5143071;28;20051;-81
2022/01/24 04:00:27;;;;;;;0.10;0.10;;;4.70;99.90;;;;;;5126642;28;20512;-81
2022/01/24 04:02:55;;;;;;;0.10;0.10;;;5.00;99.90;;;;;;5109219;28;20123;-81
2022/01/24 04:05:21;;;;;;;0.10;0.10;;;5.40;99.90;;;;;;5143294;28;20050;-81
2022/01/24 04:07:48;;;;;;;0.10;0.10;;;4.70;99.90;;;;;;5109992;28;20040;-81
2022/01/24 04:10:18;;;;;;;0.10;0.10;;;4.70;99.90;;;;;;5126462;28;20480;-81
2022/01/24 04:12:45;;;;;;;0.10;0.10;;;4.70;99.90;;;;;;5113337;28;20043;-82
2022/01/24 04:17:45;;;;;;;0.10;0.10;;;4.70;99.90;;;;;;5109383;28;20040;-82
2022/01/24 04:23:00;;;;;;;0.10;0.10;;;5.00;99.90;;;;;;5116136;28;20135;-81
2022/01/24 04:25:27;;;;;;;0.10;0.10;;;4.70;99.90;;;;;;5113828;28;20274;-81
2022/01/24 04:27:55;;;;;;;0.10;0.10;;;5.20;99.90;;;;;;5113554;28;20036;-81
2022/01/24 04:30:22;;;;;;;0.10;0.10;;;5.00;99.90;;;;;;5130682;28;20043;-81
2022/01/24 04:32:49;;;;;;;0.10;0.10;;;4.60;99.90;;;;;;5130338;28;20040;-82
2022/01/24 04:35:16;;;;;;;0.22;0.22;;;4.60;99.90;;;;;;5113149;28;20050;-81
2022/01/24 04:37:43;;;;;;;0.10;0.10;;;4.60;99.90;;;;;;5113464;28;20050;-82
2022/01/24 04:40:10;;;;;;;0.10;0.10;;;4.60;99.90;;;;;;5112778;28;20085;-82
2022/01/24 04:42:45;;;;;;;0.10;0.10;;;4.60;99.90;;;;;;5113176;28;20408;-82
2022/01/24 04:45:31;;;;;;;0.10;0.10;;;4.60;99.90;;;;;;5114773;28;20094;-81
2022/01/24 04:53:43;;;;;;;0.10;0.10;;;4.60;99.90;;;;;;5113336;28;20079;-81
2022/01/24 04:55:59;;;;;;;0.10;0.10;;;4.60;99.90;;;;;;5115959;28;20109;-81
2022/01/24 04:58:26;;;;;;;0.10;0.10;;;4.60;99.90;;;;;;5113506;28;20079;-81
2022/01/24 05:00:52;;;;;;;0.10;0.10;;;4.60;99.90;;;;;;5129817;28;20449;-81
2022/01/24 05:03:19;;;;;;;0.10;0.10;;;4.80;99.90;;;;;;5112582;28;20040;-82
2022/01/24 05:05:47;;;;;;;0.10;0.10;;;4.80;99.90;;;;;;5113065;28;20040;-81
2022/01/24 05:08:15;;;;;;;0.05;0.05;;;5.20;99.90;;;;;;5112825;28;20583;-81
2022/01/24 05:10:56;;;;;;;0.10;0.10;;;5.00;99.90;;;;;;5113168;28;20039;-81
2022/01/24 05:24:17;;;;;;;0.10;0.10;;;4.60;99.90;;;;;;5114293;28;20063;-81
2022/01/24 05:26:45;;;;;;;0.10;0.10;;;4.80;99.90;;;;;;5112440;28;20040;-81
2022/01/24 05:29:11;;;;;;;0.10;0.10;;;4.50;99.90;;;;;;5128941;28;20032;-81
2022/01/24 05:31:38;;;;;;;0.08;0.08;;;4.60;99.90;;;;;;5111661;28;20036;-81
2022/01/24 05:34:05;;;;;;;0.10;0.10;;;4.60;99.90;;;;;;5112220;28;20446;-81
2022/01/24 05:36:31;;;;;;;0.00;0.00;;;4.60;99.90;;;;;;5112193;28;20036;-81
2022/01/24 05:39:00;;;;;;;0.10;0.10;;;5.50;99.90;;;;;;5129359;28;20059;-82
2022/01/24 05:41:27;;;;;;;0.10;0.10;;;4.60;99.90;;;;;;5112913;28;20197;-81
2022/01/24 05:43:54;;;;;;;0.10;0.10;;;4.60;99.90;;;;;;5112257;28;20123;-81
2022/01/24 05:46:21;;;;;;;0.10;0.10;;;4.90;99.90;;;;;;5111943;28;20119;-81
2022/01/24 05:48:48;;;;;;;0.10;0.10;;;4.50;99.90;;;;;;5112149;28;20101;-81
2022/01/24 05:51:15;;;;;;;0.10;0.10;;;4.50;99.90;;;;;;5111894;28;20089;-81
2022/01/24 05:53:41;;;;;;;0.10;0.10;;;4.50;99.90;;;;;;5129029;28;20036;-81
2022/01/24 05:56:08;;;;;;;0.10;0.10;;;4.50;99.90;;;;;;5111696;28;20493;-81
2022/01/24 05:58:35;;;;;;;0.10;0.10;;;4.50;99.90;;;;;;5112360;28;20480;-81
2022/01/24 06:01:02;;;;;;;0.00;0.00;;;4.50;99.90;;;;;;5112206;28;20499;-81
2022/01/24 06:03:28;;;;;;;0.10;0.10;;;4.60;99.90;;;;;;5111592;28;20404;-81
2022/01/24 06:05:55;;;;;;;0.10;0.10;;;4.50;99.90;;;;;;5111993;28;20051;-82
2022/01/24 06:08:22;;;;;;;0.10;0.10;;;4.50;99.90;;;;;;5111387;28;20047;-81
2022/01/24 06:10:48;;;;;;;0.10;0.10;;;4.50;99.90;;;;;;5130387;28;20051;-81
2022/01/24 06:13:16;;;;;;;0.10;0.10;;;4.50;99.90;;;;;;5111246;28;20043;-81
2022/01/24 06:15:43;;;;;;;0.10;0.10;;;4.50;99.90;;;;;;5111590;28;20047;-81
2022/01/24 06:18:09;;;;;;;0.10;0.10;;;4.50;99.90;;;;;;5128351;28;20040;-81
2022/01/24 06:20:36;;;;;;;0.10;0.10;;;4.50;99.90;;;;;;5129229;28;20113;-81
2022/01/24 06:23:03;;;;;;;0.10;0.10;;;5.10;99.90;;;;;;5111502;28;20036;-81
2022/01/24 06:25:30;;;;;;;0.10;0.10;;;4.50;99.90;;;;;;5111159;28;20046;-81
2022/01/24 06:27:56;;;;;;;0.10;0.10;;;4.50;99.90;;;;;;5111798;28;20118;-81
2022/01/24 06:30:23;;;;;;;0.10;0.10;;;5.00;99.90;;;;;;5148115;28;20439;-81
2022/01/24 06:32:50;;;;;;;0.10;0.10;;;4.50;99.90;;;;;;5111082;28;20036;-81
2022/01/24 06:35:17;;;;;;;0.10;0.10;;;4.60;99.90;;;;;;5110980;28;20032;-81
2022/01/24 06:37:43;;;;;;;0.10;0.10;;;4.50;99.90;;;;;;5111186;28;20412;-81
2022/01/24 06:40:11;;;;;;;0.10;0.10;;;4.90;99.90;;;;;;5110452;28;20056;-80
2022/01/24 06:42:38;;;;;;;0.10;0.10;;;4.50;99.90;;;;;;5161789;27;20044;-81
2022/01/24 06:45:05;;;;;;;0.10;0.10;;;4.50;99.90;;;;;;5111266;28;20032;-81
2022/01/24 06:47:32;;;;;;;0.10;0.10;;;4.40;99.90;;;;;;5127761;28;20086;-82
2022/01/24 06:49:59;;;;;;;0.10;0.10;;;4.50;99.90;;;;;;5144992;28;20756;-81
2022/01/24 06:52:26;;;;;;;0.10;0.10;;;4.50;99.90;;;;;;5110193;28;20122;-81
2022/01/24 06:54:53;;;;;;;0.10;0.10;;;4.40;99.90;;;;;;5111050;28;20135;-82
2022/01/24 06:57:20;;;;;;;0.10;0.10;;;4.50;99.90;;;;;;5130270;28;20047;-81
2022/01/24 06:59:46;;;;;;;0.10;0.10;;;4.80;99.90;;;;;;5114209;28;20039;-81
2022/01/24 07:02:16;;;;;;;0.10;0.10;;;4.50;99.90;;;;;;5111842;28;20040;-81
2022/01/24 07:04:44;;;;;;;0.10;0.10;;;4.40;99.90;;;;;;5130700;28;20071;-81
2022/01/24 07:07:12;;;;;;;0.10;0.10;;;4.40;99.90;;;;;;5130634;28;20035;-81
2022/01/24 07:09:40;;;;;;;0.15;0.15;;;4.40;99.90;;;;;;5114121;28;20031;-81
2022/01/24 07:12:08;;;;;;;0.10;0.10;;;4.60;99.90;;;;;;5130569;28;20403;-81
2022/01/24 07:14:35;;;;;;;0.10;0.10;;;4.40;99.90;;;;;;5097124;28;20035;-81
2022/01/24 07:17:30;;;;;;;0.03;0.03;;;4.40;99.90;;;;;;5097573;28;20031;-82
2022/01/24 07:19:56;;;;;;;0.10;0.10;;;4.50;99.90;;;;;;5104786;28;20480;-82
2022/01/24 07:22:23;;;;;;;0.10;0.10;;;4.40;99.90;;;;;;5130381;28;20039;-81
2022/01/24 07:24:50;;;;;;;0.10;0.10;;;4.70;99.90;;;;;;5130779;28;20474;-82
2022/01/24 07:27:16;;;;;;;0.10;0.10;;;4.40;99.90;;;;;;5130323;28;20036;-81
2022/01/24 07:29:43;;;;;;;0.00;0.00;;;4.40;99.90;;;;;;5139992;28;20040;-81
2022/01/24 07:32:13;;;;;;;0.10;0.10;;;4.50;99.90;;;;;;5111703;28;20078;-81
2022/01/24 07:34:39;;;;;;;0.10;0.10;;;4.50;99.90;;;;;;5130135;28;20038;-82
2022/01/24 07:37:06;;;;;;;0.20;0.20;;;4.50;99.90;;;;;;5113060;28;20031;-81
2022/01/24 07:39:33;;;;;;;0.10;0.10;;;4.90;99.90;;;;;;5109414;28;20052;-82
2022/01/24 07:42:06;;;;;;;0.10;0.10;;;4.50;99.90;;;;;;5129675;28;20047;-82
2022/01/24 07:44:33;;;;;;;0.10;0.10;;;4.50;99.90;;;;;;5096387;28;20166;-81
2022/01/24 07:46:59;;;;;;;0.00;0.00;;;4.50;99.90;;;;;;5129454;28;20114;-82
2022/01/24 07:49:26;;;;;;;0.10;0.10;;;4.60;99.90;;;;;;5129000;28;20040;-81
2022/01/24 07:51:53;;;;;;;0.10;0.10;;;4.50;99.90;;;;;;5111199;28;20044;-81
2022/01/24 07:54:21;;;;;;;0.10;0.10;;;5.20;99.90;;;;;;5128945;28;20039;-81
2022/01/24 07:56:47;;;;;;;0.10;0.10;;;4.50;99.90;;;;;;5130074;28;20039;-82
2022/01/24 07:59:15;;;;;;;0.10;0.10;;;4.50;99.90;;;;;;5109698;28;20032;-82
2022/01/24 08:01:42;;;;;;;0.10;0.10;;;4.70;99.90;;;;;;5128772;28;20036;-82
2022/01/24 08:04:09;;;;;;;0.10;0.10;;;4.50;99.90;;;;;;5129987;28;20028;-82
2022/01/24 08:06:36;;;;;;;0.10;0.10;;;4.50;99.90;;;;;;5146541;28;20035;-81
2022/01/24 08:09:05;;;;;;;0.10;0.10;;;4.50;99.90;;;;;;5146726;28;20036;-82
2022/01/24 08:11:32;;;;;;;0.10;0.10;;;4.50;99.90;;;;;;5113208;28;20040;-81
2022/01/24 08:13:59;;;;;;;0.10;0.10;;;5.00;99.90;;;;;;5110567;28;20119;-84
2022/01/24 08:16:26;;;;;;;0.10;0.10;;;4.50;99.90;;;;;;5128865;28;20047;-83
2022/01/24 08:18:55;;;;;;;0.00;0.00;;;4.70;99.90;;;;;;5129971;28;20385;-83
2022/01/24 08:21:21;;;;;;;0.10;0.10;;;4.50;99.90;;;;;;5113566;28;20040;-83
2022/01/24 08:23:49;;;;;;;0.10;0.10;;;4.50;99.90;;;;;;5112672;28;20132;-83
2022/01/24 08:26:16;;;;;;;0.10;0.10;;;4.60;99.90;;;;;;5129649;28;20067;-84
2022/01/24 08:28:43;;;;;;;0.10;0.10;;;4.60;99.90;;;;;;5129376;28;20040;-83
2022/01/24 08:31:10;;;;;;;0.20;0.20;;;4.60;99.90;;;;;;5129416;28;20051;-82
2022/01/24 08:33:37;;;;;;;0.05;0.05;;;4.60;99.90;;;;;;5112476;28;20043;-85
2022/01/24 08:36:04;;;;;;;0.05;0.05;;;4.60;99.90;;;;;;5146577;28;20136;-83
2022/01/24 08:38:34;;;;;;;0.10;0.10;;;4.60;99.90;;;;;;5113166;28;20052;-84
2022/01/24 08:41:08;;;;;;;0.10;0.10;;;4.60;99.90;;;;;;5130206;28;20063;-83
2022/01/24 08:43:39;;;;;;;0.10;0.10;;;4.60;99.90;;;;;;5128494;28;20036;-84
2022/01/24 08:46:06;;;;;;;0.10;0.10;;;4.30;99.90;;;;;;5129280;28;20043;-83
2022/01/24 08:48:32;;;;;;;0.10;0.10;;;5.20;99.90;;;;;;5145832;28;20032;-83
2022/01/24 08:51:00;;;;;;;0.10;0.10;;;4.60;99.90;;;;;;5128769;28;20040;-84
2022/01/24 08:53:31;;;;;;;0.10;0.10;;;4.90;99.90;;;;;;5145622;28;20039;-82
2022/01/24 08:55:59;;;;;;;0.10;0.10;;;4.70;99.90;;;;;;5146296;28;20050;-83
2022/01/24 08:58:27;;;;;;;0.65;0.43;;;4.60;99.90;;;;;;5145774;28;20043;-83
2022/01/24 09:00:54;;;;;;;0.10;0.10;;;4.70;99.90;;;;;;5129373;28;20040;-83
2022/01/24 09:03:21;;;;;;;0.10;0.10;;;4.70;99.90;;;;;;5112022;28;20035;-83
2022/01/24 09:05:49;;;;;;;0.10;0.10;;;4.70;99.90;;;;;;5148082;28;20040;-82
2022/01/24 09:08:16;;;;;;;0.10;0.10;;;4.70;99.90;;;;;;5132797;28;20081;-82
2022/01/24 09:10:44;;;;;;;0.10;0.10;;;5.00;99.90;;;;;;5166873;27;20130;-82
2022/01/24 09:13:10;;;;;;;0.10;0.10;;;4.70;99.90;;;;;;5116114;28;20044;-82
2022/01/24 09:15:37;;;;;;;0.10;0.10;;;4.70;99.90;;;;;;5132743;28;20101;-85
2022/01/24 09:18:04;;;;;;;0.10;0.10;;;4.90;99.90;;;;;;5137103;28;20488;-85
2022/01/24 09:20:31;;;;;;;0.10;0.10;;;5.00;99.90;;;;;;5112873;28;20074;-85
2022/01/24 09:22:58;;;;;;;0.10;0.10;;;5.40;99.90;;;;;;5109701;28;20103;-85
2022/01/24 09:25:25;;;;;;;0.10;0.10;;;4.80;99.90;;;;;;5132842;28;20126;-85
2022/01/24 09:27:52;;;;;;;0.10;0.10;;;4.80;99.90;;;;;;5149990;28;20123;-85
2022/01/24 09:30:21;;;;;;;0.10;0.10;;;4.80;99.90;;;;;;5116201;28;20039;-85
2022/01/24 09:32:48;;;;;;;0.28;0.28;;;4.80;99.90;;;;;;5132804;28;20043;-85
2022/01/24 09:35:16;;;;;;;0.10;0.10;;;4.80;99.90;;;;;;5133240;28;20526;-84
2022/01/24 09:37:45;;;;;;;0.10;0.10;;;4.80;99.90;;;;;;5149594;27;20130;-85
2022/01/24 09:40:14;;;;;;;0.10;0.10;;;4.90;99.90;;;;;;5132463;28;20525;-85
2022/01/24 09:42:44;;;;;;;0.08;0.08;;;4.80;99.90;;;;;;5115903;28;20050;-84
2022/01/24 09:45:12;;;;;;;0.10;0.10;;;5.00;99.90;;;;;;5132655;28;20035;-85
2022/01/24 09:47:39;;;;;;;0.10;0.10;;;5.30;99.90;;;;;;5115548;28;20508;-85
2022/01/24 09:50:09;;;;;;;0.10;0.10;;;4.90;99.90;;;;;;5150187;28;20082;-85
2022/01/24 09:52:40;;;;;;;0.10;0.10;;;4.90;99.90;;;;;;5131587;28;20043;-85
2022/01/24 09:55:07;;;;;;;0.10;0.10;;;4.40;99.90;;;;;;5115927;28;20051;-84
2022/01/24 09:57:35;;;;;;;0.10;0.10;;;4.90;99.90;;;;;;5132448;28;20040;-85
2022/01/24 10:00:04;;;;;;;0.10;0.10;;;4.90;99.90;;;;;;5149016;27;20123;-84
2022/01/24 10:02:30;;;;;;;0.10;0.10;;;4.90;99.90;;;;;;5148382;28;20047;-84
2022/01/24 10:05:27;;;;;;;0.10;0.10;;;5.00;99.90;;;;;;5149759;28;20048;-84
2022/01/24 10:07:58;;;;;;;0.10;0.10;;;5.00;99.90;;;;;;5133111;28;20047;-85
2022/01/24 10:10:35;;;;;;;0.00;0.00;;;5.00;99.90;;;;;;5115261;28;20127;-85
2022/01/24 10:19:13;;;;;;;0.10;0.10;;;5.00;99.90;;;;;;5149532;28;20130;-85
2022/01/24 10:21:43;;;;;;;0.10;0.10;;;5.00;99.90;;;;;;5131794;28;20105;-85
2022/01/24 10:24:32;;;;;;;0.10;0.10;;;5.10;99.90;;;;;;5148234;28;20035;-85
2022/01/24 10:27:10;;;;;;;0.10;0.10;;;5.10;99.90;;;;;;5131959;28;20031;-85
2022/01/24 10:29:58;;;;;;;0.10;0.10;;;5.10;99.90;;;;;;5149164;28;20039;-85
2022/01/24 10:32:48;;;;;;;0.10;0.10;;;5.10;99.90;;;;;;5131330;28;20042;-85
2022/01/24 10:35:38;;;;;;;0.10;0.10;;;5.10;99.90;;;;;;5148985;28;20054;-85
2022/01/24 10:38:41;;;;;;;0.32;0.17;;;5.10;99.90;;;;;;5131740;28;20039;-85
2022/01/24 10:43:47;;;;;;;0.20;0.20;;;5.10;99.90;;;;;;5148884;28;20040;-85
2022/01/24 10:46:14;;;;;;;0.10;0.10;;;5.10;99.90;;;;;;5131262;28;20035;-85
2022/01/24 10:48:44;;;;;;;0.10;0.10;;;5.20;99.90;;;;;;5131523;28;20075;-85
2022/01/24 10:51:19;;;;;;;0.10;0.10;;;5.20;99.90;;;;;;5131922;28;20036;-85
2022/01/24 10:53:49;;;;;;;0.20;0.20;;;5.20;99.90;;;;;;5113962;28;20031;-84
2022/01/24 10:56:31;;;;;;;0.10;0.10;;;5.10;99.90;;;;;;5131407;28;20067;-86
2022/01/24 10:59:16;;;;;;;0.10;0.10;;;5.10;99.90;;;;;;5131508;28;20043;-85
2022/01/24 11:01:53;;;;;;;0.10;0.10;;;5.20;99.90;;;;;;5131192;28;20048;-85
2022/01/24 11:04:26;;;;;;;0.10;0.10;;;5.20;99.90;;;;;;5148106;28;20053;-84
2022/01/24 11:06:58;;;;;;;0.10;0.10;;;5.20;99.90;;;;;;5114608;28;20043;-85
2022/01/24 11:09:31;;;;;;;0.10;0.10;;;5.20;99.90;;;;;;5131199;28;20036;-85
2022/01/24 11:12:11;;;;;;;0.10;0.10;;;5.20;99.90;;;;;;5110405;28;20047;-84
2022/01/24 11:14:40;;;;;;;0.10;0.10;;;5.20;99.90;;;;;;5163032;27;20039;-85
2022/01/24 11:17:10;;;;;;;0.10;0.10;;;5.30;99.90;;;;;;5164662;27;20043;-85
2022/01/24 11:19:42;;;;;;;0.00;0.00;;;5.30;99.90;;;;;;5161934;27;20174;-85
2022/01/24 11:22:25;;;;;;;0.10;0.10;;;5.40;99.90;;;;;;5181794;27;20043;-85
2022/01/24 11:25:04;;;;;;;0.10;0.10;;;5.20;99.90;;;;;;5164532;27;20051;-84
2022/01/24 11:27:33;;;;;;;0.10;0.10;;;5.30;99.90;;;;;;5131062;28;20126;-85
2022/01/24 11:30:03;;;;;;;0.15;0.15;;;5.30;99.90;;;;;;5129691;28;20035;-85
2022/01/24 11:32:42;;;;;;;0.15;0.15;;;5.30;99.90;;;;;;5130692;28;20042;-84
2022/01/24 11:35:09;;;;;;;0.10;0.10;;;5.30;99.90;;;;;;5130234;28;20506;-83
2022/01/24 11:37:43;;;;;;;0.10;0.10;;;5.30;99.90;;;;;;5146819;27;20044;-85
2022/01/24 11:40:18;;;;;;;0.10;0.10;;;5.30;99.90;;;;;;5125160;28;20109;-84
2022/01/24 11:42:48;;;;;;;0.10;0.10;;;5.30;99.90;;;;;;5151340;27;20044;-84
2022/01/24 11:45:18;;;;;;;0.10;0.10;;;5.30;99.90;;;;;;5128920;28;20075;-84
2022/01/24 11:47:47;;;;;;;0.55;0.40;;;5.30;99.90;;;;;;5122925;28;20046;-84
2022/01/24 11:50:36;;;;;;;0.10;0.10;;;5.30;99.90;;;;;;5147237;28;20085;-85
2022/01/24 11:53:28;;;;;;;1.25;0.35;;;5.30;99.90;;;;;;5146259;28;20517;-84
2022/01/24 11:55:55;;;;;;;0.10;0.10;;;5.30;99.90;;;;;;5123893;28;20492;-84
2022/01/24 11:58:29;;;;;;;0.10;0.10;;;5.40;99.90;;;;;;5129917;28;20556;-84
2022/01/24 12:01:02;;;;;;;0.03;0.03;;;5.30;99.90;;;;;;5141065;28;20031;-84
2022/01/24 12:03:30;;;;;;;0.10;0.10;;;5.30;99.90;;;;;;5146723;28;20048;-85
2022/01/24 12:06:09;;;;;;;0.00;0.00;;;5.30;99.90;;;;;;5146731;28;20039;-84
2022/01/24 12:08:41;;;;;;;0.10;0.10;;;5.90;99.90;;;;;;5110468;28;20032;-84
2022/01/24 12:11:22;;;;;;;0.20;0.20;;;5.30;99.90;;;;;;5126769;28;20039;-85
2022/01/24 12:13:54;;;;;;;0.10;0.10;;;5.30;99.90;;;;;;5155241;27;20100;-85
2022/01/24 12:16:32;;;;;;;0.40;0.30;;;5.30;99.90;;;;;;5130095;28;20040;-84
2022/01/24 12:18:59;;;;;;;0.20;0.20;;;5.30;99.90;;;;;;5129581;28;20123;-85
2022/01/24 12:21:27;;;;;;;0.10;0.10;;;5.30;99.90;;;;;;5129275;28;20515;-84
2022/01/24 12:24:00;;;;;;;0.10;0.10;;;5.20;99.90;;;;;;5095795;28;20036;-83
2022/01/24 12:26:29;;;;;;;0.10;0.10;;;5.30;99.90;;;;;;5129574;28;20039;-83
2022/01/24 12:29:12;;;;;;;0.10;0.10;;;5.30;99.90;;;;;;5128946;28;20511;-84
2022/01/24 12:31:51;;;;;;;0.10;0.10;;;5.30;99.90;;;;;;5162803;28;20040;-83
2022/01/24 12:34:21;;;;;;;0.10;0.10;;;5.20;99.90;;;;;;5129623;28;20075;-84
2022/01/24 12:36:50;;;;;;;1.35;0.50;;;5.30;99.90;;;;;;5145056;28;20047;-85
2022/01/24 12:39:20;;;;;;;0.10;0.10;;;5.30;99.90;;;;;;5154876;28;20087;-85
2022/01/24 12:41:57;;;;;;;0.10;0.10;;;5.30;99.90;;;;;;5132604;28;20469;-84
2022/01/24 12:47:19;;;;;;;0.10;0.10;;;5.30;99.90;;;;;;5150988;28;20070;-84
2022/01/24 12:49:47;;;;;;;0.10;0.10;;;5.20;99.90;;;;;;5132905;28;20085;-84
2022/01/24 12:52:17;;;;;;;0.10;0.10;;;5.30;99.90;;;;;;5150311;28;20036;-84
2022/01/24 12:54:47;;;;;;;2.03;0.30;;;5.30;99.90;;;;;;5133040;28;20059;-84
2022/01/24 12:57:16;;;;;;;0.10;0.10;;;5.30;99.90;;;;;;5133456;28;20054;-84
2022/01/24 13:00:03;;;;;;;0.43;0.32;;;5.40;99.90;;;;;;5151234;27;20040;-83
2022/01/24 13:02:32;;;;;;;0.10;0.10;;;5.30;99.90;;;;;;5132760;28;20101;-84
2022/01/24 13:05:12;;;;;;;0.10;0.10;;;5.30;99.90;;;;;;5166817;27;20115;-84
2022/01/24 13:07:41;;;;;;;0.10;0.10;;;5.20;99.90;;;;;;5132438;28;20043;-84
2022/01/24 13:10:13;;;;;;;0.10;0.10;;;5.20;99.90;;;;;;5112583;28;20067;-84
2022/01/24 13:12:42;;;;;;;0.10;0.10;;;5.50;99.90;;;;;;5131721;28;20044;-85
2022/01/24 13:15:23;;;;;;;0.47;0.30;;;5.50;99.90;;;;;;5156034;27;20044;-84
2022/01/24 13:23:22;;;;;;;0.10;0.10;;;5.20;99.90;;;;;;5149775;28;20048;-84
2022/01/24 13:25:49;;;;;;;0.08;0.08;;;5.10;99.90;;;;;;5116741;28;20071;-86
2022/01/24 13:28:19;;;;;;;0.00;0.00;;;5.20;99.90;;;;;;5149924;28;20050;-84
2022/01/24 13:30:57;;;;;;;0.20;0.20;;;5.20;99.90;;;;;;5113887;28;20043;-85
2022/01/24 13:33:25;;;;;;;0.10;0.10;;;5.10;99.90;;;;;;5132896;28;20047;-85
2022/01/24 13:35:54;;;;;;;0.10;0.10;;;5.40;99.90;;;;;;5131924;28;20055;-84
2022/01/24 13:38:30;;;;;;;0.35;0.32;;;5.10;99.90;;;;;;5152625;27;20050;-84
2022/01/24 13:41:11;;;;;;;0.10;0.10;;;5.10;99.90;;;;;;5148811;28;20056;-85
2022/01/24 13:44:08;;;;;;;0.10;0.10;;;5.10;99.90;;;;;;5159211;27;20042;-85
2022/01/24 13:46:40;;;;;;;0.63;0.63;;;5.10;99.90;;;;;;5159239;27;20043;-84
2022/01/24 13:49:17;;;;;;;0.10;0.10;;;5.20;99.90;;;;;;5111982;28;20032;-85
2022/01/24 13:51:47;;;;;;;0.20;0.15;;;5.10;99.90;;;;;;5143708;28;20043;-86
2022/01/24 13:54:26;;;;;;;0.10;0.10;;;5.40;99.90;;;;;;5147968;28;20047;-85
2022/01/24 13:57:11;;;;;;;0.10;0.10;;;5.10;99.90;;;;;;5131133;28;20096;-85
2022/01/24 13:59:38;;;;;;;0.10;0.10;;;5.10;99.90;;;;;;5131667;28;20482;-86
2022/01/24 14:02:10;;;;;;;0.13;0.13;;;5.10;99.90;;;;;;5110957;28;20139;-85
2022/01/24 14:04:39;;;;;;;0.10;0.10;;;5.10;99.90;;;;;;5132081;28;20519;-85
2022/01/24 14:07:16;;;;;;;0.10;0.10;;;5.00;99.90;;;;;;5131446;28;20508;-84
2022/01/24 14:10:03;;;;;;;0.03;0.03;;;5.10;99.90;;;;;;5131964;28;20099;-85
2022/01/24 14:12:57;;;;;;;0.22;0.22;;;5.00;99.90;;;;;;5132095;28;20400;-86
2022/01/24 14:20:51;;;;;;;0.20;0.20;;;5.00;99.90;;;;;;5127575;28;20043;-85
2022/01/24 14:23:32;;;;;;;0.10;0.10;;;5.00;99.90;;;;;;5131576;28;20914;-86
2022/01/24 14:25:59;;;;;;;0.10;0.10;;;5.00;99.90;;;;;;5131384;28;20408;-85
2022/01/24 14:28:29;;;;;;;0.10;0.10;;;5.00;99.90;;;;;;5094197;28;20069;-85
2022/01/24 14:31:05;;;;;;;0.10;0.10;;;4.90;99.90;;;;;;5111228;28;20063;-85
2022/01/24 14:33:33;;;;;;;0.08;0.08;;;4.90;99.90;;;;;;5131860;28;20052;-86
2022/01/24 14:36:04;;;;;;;0.10;0.10;;;4.90;99.90;;;;;;5131355;28;20809;-86
2022/01/24 14:38:37;;;;;;;0.10;0.10;;;4.90;99.90;;;;;;5131719;28;20108;-86
2022/01/24 14:41:18;;;;;;;0.10;0.10;;;4.90;99.90;;;;;;5111643;28;20162;-85
2022/01/24 14:46:35;;;;;;;0.10;0.10;;;4.90;99.90;;;;;;5161983;27;20044;-85
2022/01/24 14:49:14;;;;;;;0.10;0.10;;;4.80;99.90;;;;;;5144125;28;20051;-85
2022/01/24 14:51:43;;;;;;;0.10;0.10;;;4.80;99.90;;;;;;5145143;28;20048;-86
2022/01/24 14:54:12;;;;;;;0.10;0.10;;;4.80;99.90;;;;;;5152382;27;20040;-85
2022/01/24 14:56:42;;;;;;;0.20;0.20;;;4.80;99.90;;;;;;5127388;28;20496;-86
2022/01/24 14:59:09;;;;;;;0.10;0.10;;;4.80;99.90;;;;;;5134594;28;20044;-86
2022/01/24 15:01:36;;;;;;;0.10;0.10;;;4.90;99.90;;;;;;5150137;27;20047;-86
2022/01/24 15:04:04;;;;;;;0.32;0.20;;;4.80;99.90;;;;;;5147505;28;20044;-86
2022/01/24 15:06:31;;;;;;;0.20;0.20;;;4.80;99.90;;;;;;5114148;28;20118;-86
2022/01/24 15:09:01;;;;;;;0.10;0.10;;;4.80;99.90;;;;;;5113754;28;20046;-86
2022/01/24 15:11:31;;;;;;;0.10;0.10;;;4.80;99.90;;;;;;5164858;27;20043;-85